CMA CGM Thalassa — 5BNE2 — position and weather

sailwx.info

Track history (hours):
 
Tides and Currents Weather Stations Pressure Air Temp Water Temp Dewpoint Dewpoint Depression Visibility Wind Speed Wind Dir Waves Ship Positions

CMA CGM Thalassa

Last reported at 2016-Jul-29 09:33 UTC. Time now 2016-Jul-29 10:12 UTC.
Position N 37°48' W 122°19'.

Length 347 m; draft 10.9 m.

Type: Ship (hazmat cat A). MMSI: 212151000.

Date/timePositionNaut miles runAvg speedWind from/ knotsBaromVisibWave heightAir tempDewpointWater temp
2016-Jul-29 09:33N 37°48' W 122°19'0 0.0
2016-Jul-29 08:33N 37°48' W 122°19'0 0.0
2016-Jul-29 07:33N 37°48' W 122°19'0 0.0
2016-Jul-29 06:32N 37°48' W 122°19'0 0.0
2016-Jul-29 05:32N 37°48' W 122°19'0 0.0
2016-Jul-29 04:31N 37°48' W 122°19'0 0.0
2016-Jul-29 03:31N 37°48' W 122°19'0 0.0
2016-Jul-29 02:33N 37°48' W 122°19'0 0.0
2016-Jul-29 01:33N 37°48' W 122°19'0 0.0
2016-Jul-29 00:33N 37°48' W 122°19'0 0.0
2016-Jul-28 23:32N 37°48' W 122°19'0 0.0
2016-Jul-28 22:32N 37°48' W 122°19'0 0.0
2016-Jul-28 21:31N 37°48' W 122°19'0 0.0
2016-Jul-28 20:31N 37°48' W 122°19'0 0.0
2016-Jul-28 19:33N 37°48' W 122°19'0 0.0
2016-Jul-28 18:33N 37°48' W 122°19'0 0.0
2016-Jul-28 17:32N 37°48' W 122°19'0 0.0
2016-Jul-28 16:32N 37°48' W 122°19'0 0.0
2016-Jul-28 15:32N 37°48' W 122°19'0 0.0
2016-Jul-28 14:31N 37°48' W 122°19'0 0.0
2016-Jul-28 13:31N 37°48' W 122°19'0 0.0
2016-Jul-28 12:33N 37°48' W 122°19'0 0.0
2016-Jul-28 11:33N 37°48' W 122°19'0 0.2
2016-Jul-28 10:33N 37°48' W 122°19'8 8.4
2016-Jul-28 09:33N 37°49' W 122°30'1010.3
2016-Jul-28 08:33N 37°42' W 122°40'8 7.6
2016-Jul-28 07:33N 37°35' W 122°40'9 8.5
2016-Jul-28 06:33N 37°26' W 122°40'9 8.6
2016-Jul-28 05:33N 37°17' W 122°39'1111.2
2016-Jul-28 04:33N 37°06' W 122°37'1111.4
2016-Jul-28 03:33N 36°56' W 122°32'1212.0
2016-Jul-28 02:33N 36°45' W 122°26'1212.0
2016-Jul-28 01:33N 36°33' W 122°21'1312.5
2016-Jul-28 00:33N 36°22' W 122°15'1312.7
2016-Jul-27 23:34N 36°10' W 122°09'1211.8
2016-Jul-27 22:33N 35°59' W 122°04'1211.7
2016-Jul-27 21:33N 35°48' W 121°59'1211.9
2016-Jul-27 20:33N 35°38' W 121°52'1312.6
2016-Jul-27 19:33N 35°27' W 121°44'1212.4
2016-Jul-27 18:33N 35°17' W 121°35'1212.1
2016-Jul-27 17:33N 35°07' W 121°27'1212.3
2016-Jul-27 16:34N 34°56' W 121°19'8 8.1
2016-Jul-27 15:33N 34°50' W 121°13'1312.7
2016-Jul-27 14:33N 34°39' W 121°05'1313.2
2016-Jul-27 13:33N 34°28' W 120°56'1212.0
2016-Jul-27 12:33N 34°24' W 120°42'1211.7
2016-Jul-27 11:33N 34°21' W 120°28'1212.0
2016-Jul-27 10:33N 34°18' W 120°14'1211.7
2016-Jul-27 09:33N 34°15' W 120°00'1211.9
2016-Jul-27 08:33N 34°11' W 119°47'1211.8
2016-Jul-27 07:33N 34°08' W 119°33'1211.9
2016-Jul-27 06:34N 34°05' W 119°19'1211.7
2016-Jul-27 05:33N 33°60' W 119°06'1211.8
2016-Jul-27 04:33N 33°54' W 118°54'1211.7
2016-Jul-27 03:33N 33°48' W 118°42'1211.8
2016-Jul-27 02:33N 33°43' W 118°29'1111.3
2016-Jul-27 01:33N 33°39' W 118°17'7 7.4
2016-Jul-27 00:33N 33°44' W 118°11'1 0.6
2016-Jul-26 23:33N 33°44' W 118°12'0 0.0
2016-Jul-26 22:30N 33°44' W 118°12'0 0.0
2016-Jul-26 21:32N 33°44' W 118°12'0 0.0
2016-Jul-26 20:29N 33°44' W 118°12'0 0.0
2016-Jul-26 19:32N 33°44' W 118°12'0 0.0
2016-Jul-26 18:32N 33°44' W 118°12'0 0.0
2016-Jul-26 17:32N 33°44' W 118°12'0 0.0
2016-Jul-26 16:25N 33°44' W 118°12'0 0.0
2016-Jul-26 15:31N 33°44' W 118°12'0 0.0
2016-Jul-26 14:33N 33°44' W 118°12'0 0.0
2016-Jul-26 13:30N 33°44' W 118°12'0 0.0
2016-Jul-26 12:29N 33°44' W 118°12'0 0.0
2016-Jul-26 11:26N 33°44' W 118°12'0 0.0
2016-Jul-26 10:32N 33°44' W 118°12'0 0.0
2016-Jul-26 09:31N 33°44' W 118°12'0 0.0
2016-Jul-26 08:31N 33°44' W 118°12'0 0.0
2016-Jul-26 07:33N 33°44' W 118°12'0 0.0
2016-Jul-26 06:33N 33°44' W 118°12'0 0.0
2016-Jul-26 05:29N 33°44' W 118°12'0 0.0
2016-Jul-26 04:17N 33°44' W 118°12'0 0.0
2016-Jul-26 03:32N 33°44' W 118°12'0 0.0
2016-Jul-26 02:28N 33°44' W 118°12'0 0.0
2016-Jul-26 01:31N 33°44' W 118°12'0 0.0
2016-Jul-26 00:33N 33°44' W 118°12'0 0.0
2016-Jul-25 23:33N 33°44' W 118°12'0 0.0
2016-Jul-25 22:32N 33°44' W 118°12'0 0.0
2016-Jul-25 21:32N 33°44' W 118°12'0 0.0
2016-Jul-25 20:28N 33°44' W 118°12'0 0.0
2016-Jul-25 19:31N 33°44' W 118°12'0 0.0
2016-Jul-25 18:31N 33°44' W 118°12'0 0.0
2016-Jul-25 17:24N 33°44' W 118°12'0 0.0
2016-Jul-25 16:33N 33°44' W 118°12'0 0.0
2016-Jul-25 15:26N 33°44' W 118°12'0 0.0
2016-Jul-25 14:32N 33°44' W 118°12'0 0.0
2016-Jul-25 11:09N 33°44' W 118°12'0 0.0
2016-Jul-25 10:21N 33°44' W 118°12'0 0.0
2016-Jul-25 09:33N 33°44' W 118°12'0 0.0
2016-Jul-25 08:23N 33°44' W 118°12'0 0.0
2016-Jul-25 07:23N 33°44' W 118°12'0 0.0
2016-Jul-25 06:25N 33°44' W 118°12'0 0.0
2016-Jul-25 05:28N 33°44' W 118°12'0 0.0
2016-Jul-25 04:24N 33°44' W 118°12'0 0.0
2016-Jul-25 03:30N 33°44' W 118°12'0 0.0
2016-Jul-25 02:33N 33°44' W 118°12'0 0.0
2016-Jul-25 01:32N 33°44' W 118°12'0 0.0
2016-Jul-25 00:32N 33°44' W 118°12'0 0.0
2016-Jul-24 23:31N 33°44' W 118°12'0 0.0
2016-Jul-24 22:25N 33°44' W 118°12'0 0.0
2016-Jul-24 21:33N 33°44' W 118°12'0 0.0
2016-Jul-24 20:33N 33°44' W 118°12'0 0.0
2016-Jul-24 19:30N 33°44' W 118°12'0 0.0
2016-Jul-24 18:29N 33°44' W 118°12'0 0.0
2016-Jul-24 17:32N 33°44' W 118°12'0 0.0
2016-Jul-24 16:19N 33°44' W 118°12'0 0.0
2016-Jul-24 15:25N 33°44' W 118°12'0 0.0
2016-Jul-24 13:30N 33°44' W 118°12'0 0.0
2016-Jul-24 07:33N 33°44' W 118°12'0 0.0
2016-Jul-24 06:15N 33°44' W 118°12'0 0.0
2016-Jul-24 05:23N 33°44' W 118°12'0 0.0
2016-Jul-24 04:31N 33°44' W 118°12'0 0.0
2016-Jul-24 00:06N 33°44' W 118°12'0 0.0
2016-Jul-23 23:24N 33°44' W 118°12'0 0.0
2016-Jul-23 22:29N 33°44' W 118°12'0 0.0
2016-Jul-23 20:10N 33°44' W 118°12'0 0.0
2016-Jul-23 18:22N 33°44' W 118°12'0 0.0
2016-Jul-23 17:33N 33°44' W 118°12'0 0.0
2016-Jul-23 15:26N 33°44' W 118°12'0 0.0
2016-Jul-23 14:26N 33°44' W 118°12'0 0.0
2016-Jul-23 13:32N 33°44' W 118°12'0 0.0
2016-Jul-23 12:07N 33°44' W 118°12'0 0.0
2016-Jul-23 11:25N 33°44' W 118°12'0 0.0
2016-Jul-23 02:27N 33°44' W 118°12'0 0.0
2016-Jul-23 00:32N 33°44' W 118°12'0 0.0
2016-Jul-22 23:25N 33°44' W 118°12'0 0.0
2016-Jul-22 22:07N 33°44' W 118°12'0 0.0
2016-Jul-22 21:31N 33°44' W 118°12'0 0.0
2016-Jul-22 19:30N 33°44' W 118°12'0 0.0
2016-Jul-22 18:32N 33°44' W 118°12'0 0.0
2016-Jul-22 17:29N 33°44' W 118°12'0 0.0
2016-Jul-22 16:28N 33°44' W 118°12'0 0.0
2016-Jul-22 15:13N 33°44' W 118°12'0 0.0
2016-Jul-22 14:28N 33°44' W 118°12'0 0.0
2016-Jul-22 13:27N 33°44' W 118°12'0 0.0
2016-Jul-22 12:33N 33°44' W 118°12'1 0.7
2016-Jul-22 11:33N 33°44' W 118°11'7 7.0
2016-Jul-22 10:33N 33°37' W 118°11'10 9.4
2016-Jul-22 09:33N 33°36' W 118°23'1110.8
2016-Jul-22 08:34N 33°36' W 118°35'1110.8
2016-Jul-22 07:33N 33°37' W 118°49'3511.1
2016-Jul-22 04:23N 33°37' W 119°31'911.3
2016-Jul-22 03:33N 33°37' W 119°42'1211.6
2016-Jul-22 02:34N 33°37' W 119°56'1211.6
2016-Jul-22 01:33N 33°37' W 120°10'1211.8
2016-Jul-22 00:33N 33°37' W 120°24'1211.5
2016-Jul-21 23:33N 33°37' W 120°38'1211.8
2016-Jul-21 22:33N 33°37' W 120°52'1313.2
2016-Jul-21 21:33N 33°37' W 121°08'1514.6
2016-Jul-21 20:33N 33°37' W 121°26'1514.8
2016-Jul-21 19:32N 33°36' W 121°44'1714.8
2016-Jul-21 18:25N 33°36' W 122°04'1314.6
2016-Jul-21 17:33N 33°36' W 122°19'1514.7
2016-Jul-21 16:34N 33°36' W 122°36'1717.1
2016-Jul-21 15:33N 33°36' W 122°57'1717.1
2016-Jul-21 14:33N 33°35' W 123°17'5817.1
2016-Jul-21 11:09N 33°35' W 124°27'2817.5
2016-Jul-21 09:33N 33°48' W 124°57'4218.8
2016-Jul-21 07:20N 34°09' W 125°40'  
Track history (hours):
 
Tides and Currents Weather Stations Pressure Air Temp Water Temp Dewpoint Dewpoint Depression Visibility Wind Speed Wind Dir Waves Ship Positions

CMA CGM Thalassa

Last reported at 2016-Jul-29 09:33 UTC. Time now 2016-Jul-29 10:12 UTC.
Position N 37°48' W 122°19'.

Length 347 m; draft 10.9 m.

Type: Ship (hazmat cat A). MMSI: 212151000.

Date/timePositionNaut miles runAvg speedWind from/ knotsBaromVisibWave heightAir tempDewpointWater temp
2016-Jul-29 09:33N 37°48' W 122°19'0 0.0
2016-Jul-29 08:33N 37°48' W 122°19'0 0.0
2016-Jul-29 07:33N 37°48' W 122°19'0 0.0
2016-Jul-29 06:32N 37°48' W 122°19'0 0.0
2016-Jul-29 05:32N 37°48' W 122°19'0 0.0
2016-Jul-29 04:31N 37°48' W 122°19'0 0.0
2016-Jul-29 03:31N 37°48' W 122°19'0 0.0
2016-Jul-29 02:33N 37°48' W 122°19'0 0.0
2016-Jul-29 01:33N 37°48' W 122°19'0 0.0
2016-Jul-29 00:33N 37°48' W 122°19'0 0.0
2016-Jul-28 23:32N 37°48' W 122°19'0 0.0
2016-Jul-28 22:32N 37°48' W 122°19'0 0.0
2016-Jul-28 21:31N 37°48' W 122°19'0 0.0
2016-Jul-28 20:31N 37°48' W 122°19'0 0.0
2016-Jul-28 19:33N 37°48' W 122°19'0 0.0
2016-Jul-28 18:33N 37°48' W 122°19'0 0.0
2016-Jul-28 17:32N 37°48' W 122°19'0 0.0
2016-Jul-28 16:32N 37°48' W 122°19'0 0.0
2016-Jul-28 15:32N 37°48' W 122°19'0 0.0
2016-Jul-28 14:31N 37°48' W 122°19'0 0.0
2016-Jul-28 13:31N 37°48' W 122°19'0 0.0
2016-Jul-28 12:33N 37°48' W 122°19'0 0.0
2016-Jul-28 11:33N 37°48' W 122°19'0 0.2
2016-Jul-28 10:33N 37°48' W 122°19'8 8.4
2016-Jul-28 09:33N 37°49' W 122°30'1010.3
2016-Jul-28 08:33N 37°42' W 122°40'8 7.6
2016-Jul-28 07:33N 37°35' W 122°40'9 8.5
2016-Jul-28 06:33N 37°26' W 122°40'9 8.6
2016-Jul-28 05:33N 37°17' W 122°39'1111.2
2016-Jul-28 04:33N 37°06' W 122°37'1111.4
2016-Jul-28 03:33N 36°56' W 122°32'1212.0
2016-Jul-28 02:33N 36°45' W 122°26'1212.0
2016-Jul-28 01:33N 36°33' W 122°21'1312.5
2016-Jul-28 00:33N 36°22' W 122°15'1312.7
2016-Jul-27 23:34N 36°10' W 122°09'1211.8
2016-Jul-27 22:33N 35°59' W 122°04'1211.7
2016-Jul-27 21:33N 35°48' W 121°59'1211.9
2016-Jul-27 20:33N 35°38' W 121°52'1312.6
2016-Jul-27 19:33N 35°27' W 121°44'1212.4
2016-Jul-27 18:33N 35°17' W 121°35'1212.1
2016-Jul-27 17:33N 35°07' W 121°27'1212.3
2016-Jul-27 16:34N 34°56' W 121°19'8 8.1
2016-Jul-27 15:33N 34°50' W 121°13'1312.7
2016-Jul-27 14:33N 34°39' W 121°05'1313.2
2016-Jul-27 13:33N 34°28' W 120°56'1212.0
2016-Jul-27 12:33N 34°24' W 120°42'1211.7
2016-Jul-27 11:33N 34°21' W 120°28'1212.0
2016-Jul-27 10:33N 34°18' W 120°14'1211.7
2016-Jul-27 09:33N 34°15' W 120°00'1211.9
2016-Jul-27 08:33N 34°11' W 119°47'1211.8
2016-Jul-27 07:33N 34°08' W 119°33'1211.9
2016-Jul-27 06:34N 34°05' W 119°19'1211.7
2016-Jul-27 05:33N 33°60' W 119°06'1211.8
2016-Jul-27 04:33N 33°54' W 118°54'1211.7
2016-Jul-27 03:33N 33°48' W 118°42'1211.8
2016-Jul-27 02:33N 33°43' W 118°29'1111.3
2016-Jul-27 01:33N 33°39' W 118°17'7 7.4
2016-Jul-27 00:33N 33°44' W 118°11'1 0.6
2016-Jul-26 23:33N 33°44' W 118°12'0 0.0
2016-Jul-26 22:30N 33°44' W 118°12'0 0.0
2016-Jul-26 21:32N 33°44' W 118°12'0 0.0
2016-Jul-26 20:29N 33°44' W 118°12'0 0.0
2016-Jul-26 19:32N 33°44' W 118°12'0 0.0
2016-Jul-26 18:32N 33°44' W 118°12'0 0.0
2016-Jul-26 17:32N 33°44' W 118°12'0 0.0
2016-Jul-26 16:25N 33°44' W 118°12'0 0.0
2016-Jul-26 15:31N 33°44' W 118°12'0 0.0
2016-Jul-26 14:33N 33°44' W 118°12'0 0.0
2016-Jul-26 13:30N 33°44' W 118°12'0 0.0
2016-Jul-26 12:29N 33°44' W 118°12'0 0.0
2016-Jul-26 11:26N 33°44' W 118°12'0 0.0
2016-Jul-26 10:32N 33°44' W 118°12'0 0.0
2016-Jul-26 09:31N 33°44' W 118°12'0 0.0
2016-Jul-26 08:31N 33°44' W 118°12'0 0.0
2016-Jul-26 07:33N 33°44' W 118°12'0 0.0
2016-Jul-26 06:33N 33°44' W 118°12'0 0.0
2016-Jul-26 05:29N 33°44' W 118°12'0 0.0
2016-Jul-26 04:17N 33°44' W 118°12'0 0.0
2016-Jul-26 03:32N 33°44' W 118°12'0 0.0
2016-Jul-26 02:28N 33°44' W 118°12'0 0.0
2016-Jul-26 01:31N 33°44' W 118°12'0 0.0
2016-Jul-26 00:33N 33°44' W 118°12'0 0.0
2016-Jul-25 23:33N 33°44' W 118°12'0 0.0
2016-Jul-25 22:32N 33°44' W 118°12'0 0.0
2016-Jul-25 21:32N 33°44' W 118°12'0 0.0
2016-Jul-25 20:28N 33°44' W 118°12'0 0.0
2016-Jul-25 19:31N 33°44' W 118°12'0 0.0
2016-Jul-25 18:31N 33°44' W 118°12'0 0.0
2016-Jul-25 17:24N 33°44' W 118°12'0 0.0
2016-Jul-25 16:33N 33°44' W 118°12'0 0.0
2016-Jul-25 15:26N 33°44' W 118°12'0 0.0
2016-Jul-25 14:32N 33°44' W 118°12'0 0.0
2016-Jul-25 11:09N 33°44' W 118°12'0 0.0
2016-Jul-25 10:21N 33°44' W 118°12'0 0.0
2016-Jul-25 09:33N 33°44' W 118°12'0 0.0
2016-Jul-25 08:23N 33°44' W 118°12'0 0.0
2016-Jul-25 07:23N 33°44' W 118°12'0 0.0
2016-Jul-25 06:25N 33°44' W 118°12'0 0.0
2016-Jul-25 05:28N 33°44' W 118°12'0 0.0
2016-Jul-25 04:24N 33°44' W 118°12'0 0.0
2016-Jul-25 03:30N 33°44' W 118°12'0 0.0
2016-Jul-25 02:33N 33°44' W 118°12'0 0.0
2016-Jul-25 01:32N 33°44' W 118°12'0 0.0
2016-Jul-25 00:32N 33°44' W 118°12'0 0.0
2016-Jul-24 23:31N 33°44' W 118°12'0 0.0
2016-Jul-24 22:25N 33°44' W 118°12'0 0.0
2016-Jul-24 21:33N 33°44' W 118°12'0 0.0
2016-Jul-24 20:33N 33°44' W 118°12'0 0.0
2016-Jul-24 19:30N 33°44' W 118°12'0 0.0
2016-Jul-24 18:29N 33°44' W 118°12'0 0.0
2016-Jul-24 17:32N 33°44' W 118°12'0 0.0
2016-Jul-24 16:19N 33°44' W 118°12'0 0.0
2016-Jul-24 15:25N 33°44' W 118°12'0 0.0
2016-Jul-24 13:30N 33°44' W 118°12'0 0.0
2016-Jul-24 07:33N 33°44' W 118°12'0 0.0
2016-Jul-24 06:15N 33°44' W 118°12'0 0.0
2016-Jul-24 05:23N 33°44' W 118°12'0 0.0
2016-Jul-24 04:31N 33°44' W 118°12'0 0.0
2016-Jul-24 00:06N 33°44' W 118°12'0 0.0
2016-Jul-23 23:24N 33°44' W 118°12'0 0.0
2016-Jul-23 22:29N 33°44' W 118°12'0 0.0
2016-Jul-23 20:10N 33°44' W 118°12'0 0.0
2016-Jul-23 18:22N 33°44' W 118°12'0 0.0
2016-Jul-23 17:33N 33°44' W 118°12'0 0.0
2016-Jul-23 15:26N 33°44' W 118°12'0 0.0
2016-Jul-23 14:26N 33°44' W 118°12'0 0.0
2016-Jul-23 13:32N 33°44' W 118°12'0 0.0
2016-Jul-23 12:07N 33°44' W 118°12'0 0.0
2016-Jul-23 11:25N 33°44' W 118°12'0 0.0
2016-Jul-23 02:27N 33°44' W 118°12'0 0.0
2016-Jul-23 00:32N 33°44' W 118°12'0 0.0
2016-Jul-22 23:25N 33°44' W 118°12'0 0.0
2016-Jul-22 22:07N 33°44' W 118°12'0 0.0
2016-Jul-22 21:31N 33°44' W 118°12'0 0.0
2016-Jul-22 19:30N 33°44' W 118°12'0 0.0
2016-Jul-22 18:32N 33°44' W 118°12'0 0.0
2016-Jul-22 17:29N 33°44' W 118°12'0 0.0
2016-Jul-22 16:28N 33°44' W 118°12'0 0.0
2016-Jul-22 15:13N 33°44' W 118°12'0 0.0
2016-Jul-22 14:28N 33°44' W 118°12'0 0.0
2016-Jul-22 13:27N 33°44' W 118°12'0 0.0
2016-Jul-22 12:33N 33°44' W 118°12'1 0.7
2016-Jul-22 11:33N 33°44' W 118°11'7 7.0
2016-Jul-22 10:33N 33°37' W 118°11'10 9.4
2016-Jul-22 09:33N 33°36' W 118°23'1110.8
2016-Jul-22 08:34N 33°36' W 118°35'1110.8
2016-Jul-22 07:33N 33°37' W 118°49'3511.1
2016-Jul-22 04:23N 33°37' W 119°31'911.3
2016-Jul-22 03:33N 33°37' W 119°42'1211.6
2016-Jul-22 02:34N 33°37' W 119°56'1211.6
2016-Jul-22 01:33N 33°37' W 120°10'1211.8
2016-Jul-22 00:33N 33°37' W 120°24'1211.5
2016-Jul-21 23:33N 33°37' W 120°38'1211.8
2016-Jul-21 22:33N 33°37' W 120°52'1313.2
2016-Jul-21 21:33N 33°37' W 121°08'1514.6
2016-Jul-21 20:33N 33°37' W 121°26'1514.8
2016-Jul-21 19:32N 33°36' W 121°44'1714.8
2016-Jul-21 18:25N 33°36' W 122°04'1314.6
2016-Jul-21 17:33N 33°36' W 122°19'1514.7
2016-Jul-21 16:34N 33°36' W 122°36'1717.1
2016-Jul-21 15:33N 33°36' W 122°57'1717.1
2016-Jul-21 14:33N 33°35' W 123°17'5817.1
2016-Jul-21 11:09N 33°35' W 124°27'2817.5
2016-Jul-21 09:33N 33°48' W 124°57'4218.8
2016-Jul-21 07:20N 34°09' W 125°40'  

Dump ship's entire track history